Main page
METAR-TAF:

METAR-TAF

Airports :

Isfahan International Airport

Esfahān, Iran

latitude: 32-28N, longitude: 051-43E, elevation: 1590 m

Current weather observation

The report was made 13 minutes ago, at 21:00 UTC
Wind 4 kt from the West/Southwest
Temperature 1°C
Humidity 80%
Pressure 1020 hPa
Visibility: 5000 m
mist

METAR: OIFM 102100Z 25004KT 5000 BR NSC 01/M02 Q1019 A3012

Time: 00:43 (21:13 UTC)

Forecast

The report was made 3 hours and 26 minutes ago, at 17:47 UTC
Forecast valid from 10 at 18 UTC to 11 at 24 UTC
Wind 8 kt from the North/Northeast
Visibility: 7000 m
Probability 40%
from 11 at 01 UTC to 11 at 06 UTC
Visibility: 2500 m

TAF: OIFM 101747Z 1018/1124 02008KT 7000 NSC PROB40 1101/1106 2500 BR/HZ

Weather observations and forecasts of more than 4000 airports (METAR and TAF reports).

The available stations are represented by yellow and red dots on the map.

Hover mouse over dot to see the name of the station.

Then click to see weather observations and forecasts.

To change the map : click on the green buttons with a black cross to zoom in, on the green button with a dash to zoom out, or on the green arrows for adjacent maps.


METAR-TAF: